sensor_id;sensor_type;location;lat;lon;timestamp;temperature;humidity
62998;DHT22;55949;52.590;7.330;2023-10-09T00:00:24;18.70;99.90
62998;DHT22;55949;52.590;7.330;2023-10-09T00:01:41;18.80;99.90
62998;DHT22;55949;52.590;7.330;2023-10-09T00:02:47;18.90;99.90
62998;DHT22;55949;52.590;7.330;2023-10-09T00:03:48;18.90;99.90
62998;DHT22;55949;52.590;7.330;2023-10-09T00:04:53;18.80;99.90
62998;DHT22;55949;52.590;7.330;2023-10-09T00:05:57;18.80;99.90
62998;DHT22;55949;52.590;7.330;2023-10-09T00:06:58;18.70;99.90
62998;DHT22;55949;52.590;7.330;2023-10-09T00:08:00;18.40;99.90
62998;DHT22;55949;52.590;7.330;2023-10-09T00:09:04;18.30;99.90
62998;DHT22;55949;52.590;7.330;2023-10-09T00:10:23;18.20;99.90
62998;DHT22;55949;52.590;7.330;2023-10-09T00:11:35;18.20;99.90
62998;DHT22;55949;52.590;7.330;2023-10-09T00:12:42;18.30;99.90
62998;DHT22;55949;52.590;7.330;2023-10-09T00:13:45;18.30;99.90
62998;DHT22;55949;52.590;7.330;2023-10-09T00:14:57;18.30;99.90
62998;DHT22;55949;52.590;7.330;2023-10-09T00:16:08;18.40;99.90
62998;DHT22;55949;52.590;7.330;2023-10-09T00:17:17;18.30;99.90
62998;DHT22;55949;52.590;7.330;2023-10-09T00:18:19;18.40;99.90
62998;DHT22;55949;52.590;7.330;2023-10-09T00:19:28;18.30;99.90
62998;DHT22;55949;52.590;7.330;2023-10-09T00:20:36;18.30;99.90
62998;DHT22;55949;52.590;7.330;2023-10-09T00:21:41;18.40;99.90
62998;DHT22;55949;52.590;7.330;2023-10-09T00:22:42;18.50;99.90
62998;DHT22;55949;52.590;7.330;2023-10-09T00:23:46;18.50;99.90
62998;DHT22;55949;52.590;7.330;2023-10-09T00:24:57;18.50;99.90
62998;DHT22;55949;52.590;7.330;2023-10-09T00:26:13;18.50;99.90
62998;DHT22;55949;52.590;7.330;2023-10-09T00:27:16;18.40;99.90
62998;DHT22;55949;52.590;7.330;2023-10-09T00:28:21;18.40;99.90
62998;DHT22;55949;52.590;7.330;2023-10-09T00:29:23;18.30;99.90
62998;DHT22;55949;52.590;7.330;2023-10-09T00:30:27;18.40;99.90
62998;DHT22;55949;52.590;7.330;2023-10-09T00:31:31;18.40;99.90
62998;DHT22;55949;52.590;7.330;2023-10-09T00:32:33;18.50;99.90
62998;DHT22;55949;52.590;7.330;2023-10-09T00:33:37;18.50;99.90
62998;DHT22;55949;52.590;7.330;2023-10-09T00:34:38;18.40;99.90
62998;DHT22;55949;52.590;7.330;2023-10-09T00:35:41;18.30;99.90
62998;DHT22;55949;52.590;7.330;2023-10-09T00:36:54;18.30;99.90
62998;DHT22;55949;52.590;7.330;2023-10-09T00:37:56;18.40;99.90
62998;DHT22;55949;52.590;7.330;2023-10-09T00:39:03;18.20;99.90
62998;DHT22;55949;52.590;7.330;2023-10-09T00:40:12;18.00;99.90
62998;DHT22;55949;52.590;7.330;2023-10-09T00:41:20;18.20;99.90
62998;DHT22;55949;52.590;7.330;2023-10-09T00:42:25;18.40;99.90
62998;DHT22;55949;52.590;7.330;2023-10-09T00:43:30;18.60;99.90
62998;DHT22;55949;52.590;7.330;2023-10-09T00:44:31;18.50;99.90
62998;DHT22;55949;52.590;7.330;2023-10-09T00:45:42;18.40;99.90
62998;DHT22;55949;52.590;7.330;2023-10-09T00:46:45;18.40;99.90
62998;DHT22;55949;52.590;7.330;2023-10-09T00:47:47;18.30;99.90
62998;DHT22;55949;52.590;7.330;2023-10-09T00:48:57;18.10;99.90
62998;DHT22;55949;52.590;7.330;2023-10-09T00:51:11;18.10;99.90
62998;DHT22;55949;52.590;7.330;2023-10-09T00:52:23;18.10;99.90
62998;DHT22;55949;52.590;7.330;2023-10-09T00:53:31;18.20;99.90
62998;DHT22;55949;52.590;7.330;2023-10-09T00:54:33;18.20;99.90
62998;DHT22;55949;52.590;7.330;2023-10-09T00:55:41;18.30;99.90
62998;DHT22;55949;52.590;7.330;2023-10-09T00:56:46;18.20;99.90
62998;DHT22;55949;52.590;7.330;2023-10-09T00:57:58;18.20;99.90
62998;DHT22;55949;52.590;7.330;2023-10-09T00:59:00;18.00;99.90
62998;DHT22;55949;52.590;7.330;2023-10-09T01:00:14;18.00;99.90
62998;DHT22;55949;52.590;7.330;2023-10-09T01:01:32;17.90;99.90
62998;DHT22;55949;52.590;7.330;2023-10-09T01:02:36;17.80;99.90
62998;DHT22;55949;52.590;7.330;2023-10-09T01:03:37;17.90;99.90
62998;DHT22;55949;52.590;7.330;2023-10-09T01:04:40;18.00;99.90
62998;DHT22;55949;52.590;7.330;2023-10-09T01:05:48;17.90;99.90
62998;DHT22;55949;52.590;7.330;2023-10-09T01:06:58;17.90;99.90
62998;DHT22;55949;52.590;7.330;2023-10-09T01:08:15;17.80;99.90
62998;DHT22;55949;52.590;7.330;2023-10-09T01:09:18;17.60;99.90
62998;DHT22;55949;52.590;7.330;2023-10-09T01:10:20;17.50;99.90
62998;DHT22;55949;52.590;7.330;2023-10-09T01:11:22;17.50;99.90
62998;DHT22;55949;52.590;7.330;2023-10-09T01:12:23;17.50;99.90
62998;DHT22;55949;52.590;7.330;2023-10-09T01:13:25;17.40;99.90
62998;DHT22;55949;52.590;7.330;2023-10-09T01:14:55;17.40;99.90
62998;DHT22;55949;52.590;7.330;2023-10-09T01:15:56;17.30;99.90
62998;DHT22;55949;52.590;7.330;2023-10-09T01:16:58;17.30;99.90
62998;DHT22;55949;52.590;7.330;2023-10-09T01:18:02;17.30;99.90
62998;DHT22;55949;52.590;7.330;2023-10-09T01:19:03;17.30;99.90
62998;DHT22;55949;52.590;7.330;2023-10-09T01:20:13;17.30;99.90
62998;DHT22;55949;52.590;7.330;2023-10-09T01:21:18;17.40;99.90
62998;DHT22;55949;52.590;7.330;2023-10-09T01:22:21;17.10;99.90
62998;DHT22;55949;52.590;7.330;2023-10-09T01:23:22;17.00;99.90
62998;DHT22;55949;52.590;7.330;2023-10-09T01:24:24;17.00;99.90
62998;DHT22;55949;52.590;7.330;2023-10-09T01:25:27;17.10;99.90
62998;DHT22;55949;52.590;7.330;2023-10-09T01:26:43;17.10;99.90
62998;DHT22;55949;52.590;7.330;2023-10-09T01:27:46;17.30;99.90
62998;DHT22;55949;52.590;7.330;2023-10-09T01:28:47;17.40;99.90
62998;DHT22;55949;52.590;7.330;2023-10-09T01:29:49;17.40;99.90
62998;DHT22;55949;52.590;7.330;2023-10-09T01:30:52;17.30;99.90
62998;DHT22;55949;52.590;7.330;2023-10-09T01:31:54;17.30;99.90
62998;DHT22;55949;52.590;7.330;2023-10-09T01:33:04;17.10;99.90
62998;DHT22;55949;52.590;7.330;2023-10-09T01:34:13;17.30;99.90
62998;DHT22;55949;52.590;7.330;2023-10-09T01:35:13;17.30;99.90
62998;DHT22;55949;52.590;7.330;2023-10-09T01:36:23;17.20;99.90
62998;DHT22;55949;52.590;7.330;2023-10-09T01:37:32;17.30;99.90
62998;DHT22;55949;52.590;7.330;2023-10-09T01:38:37;17.20;99.90
62998;DHT22;55949;52.590;7.330;2023-10-09T01:39:55;17.00;99.90
62998;DHT22;55949;52.590;7.330;2023-10-09T01:40:59;17.00;99.90
62998;DHT22;55949;52.590;7.330;2023-10-09T01:42:09;16.80;99.90
62998;DHT22;55949;52.590;7.330;2023-10-09T01:43:10;17.00;99.90
62998;DHT22;55949;52.590;7.330;2023-10-09T01:44:11;17.00;99.90
62998;DHT22;55949;52.590;7.330;2023-10-09T01:45:13;16.80;99.90
62998;DHT22;55949;52.590;7.330;2023-10-09T01:46:17;16.60;99.90
62998;DHT22;55949;52.590;7.330;2023-10-09T01:47:20;16.50;99.90
62998;DHT22;55949;52.590;7.330;2023-10-09T01:48:22;16.60;99.90
62998;DHT22;55949;52.590;7.330;2023-10-09T01:49:25;16.70;99.90
62998;DHT22;55949;52.590;7.330;2023-10-09T01:50:33;16.40;99.90
62998;DHT22;55949;52.590;7.330;2023-10-09T01:51:35;16.40;99.90
62998;DHT22;55949;52.590;7.330;2023-10-09T01:52:39;16.30;99.90
62998;DHT22;55949;52.590;7.330;2023-10-09T01:53:40;16.30;99.90
62998;DHT22;55949;52.590;7.330;2023-10-09T01:54:46;16.20;99.90
62998;DHT22;55949;52.590;7.330;2023-10-09T01:55:50;16.30;99.90
62998;DHT22;55949;52.590;7.330;2023-10-09T01:56:55;16.30;99.90
62998;DHT22;55949;52.590;7.330;2023-10-09T01:57:57;16.10;99.90
62998;DHT22;55949;52.590;7.330;2023-10-09T01:58:58;16.10;99.90
62998;DHT22;55949;52.590;7.330;2023-10-09T02:00:06;16.10;99.90
62998;DHT22;55949;52.590;7.330;2023-10-09T02:01:08;16.30;99.90
62998;DHT22;55949;52.590;7.330;2023-10-09T02:02:13;16.10;99.90
62998;DHT22;55949;52.590;7.330;2023-10-09T02:03:26;16.30;99.90
62998;DHT22;55949;52.590;7.330;2023-10-09T02:04:29;16.40;99.90
62998;DHT22;55949;52.590;7.330;2023-10-09T02:05:30;16.30;99.90
62998;DHT22;55949;52.590;7.330;2023-10-09T02:06:34;16.10;99.90
62998;DHT22;55949;52.590;7.330;2023-10-09T02:07:38;16.30;99.90
62998;DHT22;55949;52.590;7.330;2023-10-09T02:08:44;16.40;99.90
62998;DHT22;55949;52.590;7.330;2023-10-09T02:09:50;16.40;99.90
62998;DHT22;55949;52.590;7.330;2023-10-09T02:10:50;16.20;99.90
62998;DHT22;55949;52.590;7.330;2023-10-09T02:11:55;16.20;99.90
62998;DHT22;55949;52.590;7.330;2023-10-09T02:12:57;16.30;99.90
62998;DHT22;55949;52.590;7.330;2023-10-09T02:13:58;16.20;99.90
62998;DHT22;55949;52.590;7.330;2023-10-09T02:15:01;16.10;99.90
62998;DHT22;55949;52.590;7.330;2023-10-09T02:16:09;16.20;99.90
62998;DHT22;55949;52.590;7.330;2023-10-09T02:17:16;16.30;99.90
62998;DHT22;55949;52.590;7.330;2023-10-09T02:18:21;16.30;99.90
62998;DHT22;55949;52.590;7.330;2023-10-09T02:19:22;16.40;99.90
62998;DHT22;55949;52.590;7.330;2023-10-09T02:20:34;16.30;99.90
62998;DHT22;55949;52.590;7.330;2023-10-09T02:21:38;16.10;99.90
62998;DHT22;55949;52.590;7.330;2023-10-09T02:22:42;16.10;99.90
62998;DHT22;55949;52.590;7.330;2023-10-09T02:23:42;16.10;99.90
62998;DHT22;55949;52.590;7.330;2023-10-09T02:24:49;16.20;99.90
62998;DHT22;55949;52.590;7.330;2023-10-09T02:25:50;16.20;99.90
62998;DHT22;55949;52.590;7.330;2023-10-09T02:26:53;16.30;99.90
62998;DHT22;55949;52.590;7.330;2023-10-09T02:27:54;16.30;99.90
62998;DHT22;55949;52.590;7.330;2023-10-09T02:28:56;16.40;99.90
62998;DHT22;55949;52.590;7.330;2023-10-09T02:30:04;16.50;99.90
62998;DHT22;55949;52.590;7.330;2023-10-09T02:31:28;16.40;99.90
62998;DHT22;55949;52.590;7.330;2023-10-09T02:32:35;16.30;99.90
62998;DHT22;55949;52.590;7.330;2023-10-09T02:33:36;16.30;99.90
62998;DHT22;55949;52.590;7.330;2023-10-09T02:34:40;16.30;99.90
62998;DHT22;55949;52.590;7.330;2023-10-09T02:35:40;16.20;99.90
62998;DHT22;55949;52.590;7.330;2023-10-09T02:36:44;16.20;99.90
62998;DHT22;55949;52.590;7.330;2023-10-09T02:37:57;16.20;99.90
62998;DHT22;55949;52.590;7.330;2023-10-09T02:38:58;16.30;99.90
62998;DHT22;55949;52.590;7.330;2023-10-09T02:39:59;16.40;99.90
62998;DHT22;55949;52.590;7.330;2023-10-09T02:41:08;16.40;99.90
62998;DHT22;55949;52.590;7.330;2023-10-09T02:42:12;16.50;99.90
62998;DHT22;55949;52.590;7.330;2023-10-09T02:43:13;16.40;99.90
62998;DHT22;55949;52.590;7.330;2023-10-09T02:44:18;16.30;99.90
62998;DHT22;55949;52.590;7.330;2023-10-09T02:45:25;16.30;99.90
62998;DHT22;55949;52.590;7.330;2023-10-09T02:46:26;16.30;99.90
62998;DHT22;55949;52.590;7.330;2023-10-09T02:47:30;16.30;99.90
62998;DHT22;55949;52.590;7.330;2023-10-09T02:48:38;16.20;99.90
62998;DHT22;55949;52.590;7.330;2023-10-09T02:49:42;16.20;99.90
62998;DHT22;55949;52.590;7.330;2023-10-09T02:50:43;16.30;99.90
62998;DHT22;55949;52.590;7.330;2023-10-09T02:51:45;16.40;99.90
62998;DHT22;55949;52.590;7.330;2023-10-09T02:52:53;16.40;99.90
62998;DHT22;55949;52.590;7.330;2023-10-09T02:54:02;16.30;99.90
62998;DHT22;55949;52.590;7.330;2023-10-09T02:55:29;16.30;99.90
62998;DHT22;55949;52.590;7.330;2023-10-09T02:56:30;16.40;99.90
62998;DHT22;55949;52.590;7.330;2023-10-09T02:57:38;16.50;99.90
62998;DHT22;55949;52.590;7.330;2023-10-09T02:58:42;16.50;99.90
62998;DHT22;55949;52.590;7.330;2023-10-09T02:59:44;16.50;99.90
62998;DHT22;55949;52.590;7.330;2023-10-09T03:00:45;16.60;99.90
62998;DHT22;55949;52.590;7.330;2023-10-09T03:01:48;16.70;99.90
62998;DHT22;55949;52.590;7.330;2023-10-09T03:02:49;16.60;99.90
62998;DHT22;55949;52.590;7.330;2023-10-09T03:03:51;16.60;99.90
62998;DHT22;55949;52.590;7.330;2023-10-09T03:04:51;16.70;99.90
62998;DHT22;55949;52.590;7.330;2023-10-09T03:05:55;16.80;99.90
62998;DHT22;55949;52.590;7.330;2023-10-09T03:06:59;16.90;99.90
62998;DHT22;55949;52.590;7.330;2023-10-09T03:08:00;17.00;99.90
62998;DHT22;55949;52.590;7.330;2023-10-09T03:09:02;16.90;99.90
62998;DHT22;55949;52.590;7.330;2023-10-09T03:10:16;16.80;99.90
62998;DHT22;55949;52.590;7.330;2023-10-09T03:11:17;16.80;99.90
62998;DHT22;55949;52.590;7.330;2023-10-09T03:12:19;16.80;99.90
62998;DHT22;55949;52.590;7.330;2023-10-09T03:13:22;16.80;99.90
62998;DHT22;55949;52.590;7.330;2023-10-09T03:14:23;16.80;99.90
62998;DHT22;55949;52.590;7.330;2023-10-09T03:15:27;16.80;99.90
62998;DHT22;55949;52.590;7.330;2023-10-09T03:16:29;16.80;99.90
62998;DHT22;55949;52.590;7.330;2023-10-09T03:17:30;16.80;99.90
62998;DHT22;55949;52.590;7.330;2023-10-09T03:18:31;16.90;99.90
62998;DHT22;55949;52.590;7.330;2023-10-09T03:19:32;17.00;99.90
62998;DHT22;55949;52.590;7.330;2023-10-09T03:20:37;16.90;99.90
62998;DHT22;55949;52.590;7.330;2023-10-09T03:21:38;16.90;99.90
62998;DHT22;55949;52.590;7.330;2023-10-09T03:22:39;17.00;99.90
62998;DHT22;55949;52.590;7.330;2023-10-09T03:23:40;17.00;99.90
62998;DHT22;55949;52.590;7.330;2023-10-09T03:24:41;17.00;99.90
62998;DHT22;55949;52.590;7.330;2023-10-09T03:25:45;17.10;99.90
62998;DHT22;55949;52.590;7.330;2023-10-09T03:26:46;17.10;99.90
62998;DHT22;55949;52.590;7.330;2023-10-09T03:27:46;17.20;99.90
62998;DHT22;55949;52.590;7.330;2023-10-09T03:28:48;17.20;99.90
62998;DHT22;55949;52.590;7.330;2023-10-09T03:29:49;17.20;99.90
62998;DHT22;55949;52.590;7.330;2023-10-09T03:30:50;17.20;99.90
62998;DHT22;55949;52.590;7.330;2023-10-09T03:31:51;17.20;99.90
62998;DHT22;55949;52.590;7.330;2023-10-09T03:32:52;17.30;99.90
62998;DHT22;55949;52.590;7.330;2023-10-09T03:33:54;17.20;99.90
62998;DHT22;55949;52.590;7.330;2023-10-09T03:34:54;17.10;99.90
62998;DHT22;55949;52.590;7.330;2023-10-09T03:35:55;17.00;99.90
62998;DHT22;55949;52.590;7.330;2023-10-09T03:36:56;17.00;99.90
62998;DHT22;55949;52.590;7.330;2023-10-09T03:38:04;17.10;99.90
62998;DHT22;55949;52.590;7.330;2023-10-09T03:39:15;17.00;99.90
62998;DHT22;55949;52.590;7.330;2023-10-09T03:40:25;17.00;99.90
62998;DHT22;55949;52.590;7.330;2023-10-09T03:41:26;17.00;99.90
62998;DHT22;55949;52.590;7.330;2023-10-09T03:42:27;17.00;99.90
62998;DHT22;55949;52.590;7.330;2023-10-09T03:43:27;16.90;99.90
62998;DHT22;55949;52.590;7.330;2023-10-09T03:44:32;16.80;99.90
62998;DHT22;55949;52.590;7.330;2023-10-09T03:45:36;16.80;99.90
62998;DHT22;55949;52.590;7.330;2023-10-09T03:46:39;16.90;99.90
62998;DHT22;55949;52.590;7.330;2023-10-09T03:47:40;17.00;99.90
62998;DHT22;55949;52.590;7.330;2023-10-09T03:48:49;17.10;99.90
62998;DHT22;55949;52.590;7.330;2023-10-09T03:49:50;17.20;99.90
62998;DHT22;55949;52.590;7.330;2023-10-09T03:50:54;17.20;99.90
62998;DHT22;55949;52.590;7.330;2023-10-09T03:52:11;17.30;99.90
62998;DHT22;55949;52.590;7.330;2023-10-09T03:53:17;17.20;99.90
62998;DHT22;55949;52.590;7.330;2023-10-09T03:54:19;17.20;99.90
62998;DHT22;55949;52.590;7.330;2023-10-09T03:55:24;17.20;99.90
62998;DHT22;55949;52.590;7.330;2023-10-09T03:56:28;17.10;99.90
62998;DHT22;55949;52.590;7.330;2023-10-09T03:57:29;17.10;99.90
62998;DHT22;55949;52.590;7.330;2023-10-09T03:58:29;17.00;99.90
62998;DHT22;55949;52.590;7.330;2023-10-09T03:59:33;17.00;99.90
62998;DHT22;55949;52.590;7.330;2023-10-09T04:00:34;16.80;99.90
62998;DHT22;55949;52.590;7.330;2023-10-09T04:01:45;16.70;99.90
62998;DHT22;55949;52.590;7.330;2023-10-09T04:02:47;16.70;99.90
62998;DHT22;55949;52.590;7.330;2023-10-09T04:03:50;16.60;99.90
62998;DHT22;55949;52.590;7.330;2023-10-09T04:05:00;16.40;99.90
62998;DHT22;55949;52.590;7.330;2023-10-09T04:06:01;16.40;99.90
62998;DHT22;55949;52.590;7.330;2023-10-09T04:07:01;16.40;99.90
62998;DHT22;55949;52.590;7.330;2023-10-09T04:08:03;16.40;99.90
62998;DHT22;55949;52.590;7.330;2023-10-09T04:09:12;16.40;99.90
62998;DHT22;55949;52.590;7.330;2023-10-09T04:10:19;16.40;99.90
62998;DHT22;55949;52.590;7.330;2023-10-09T04:11:39;16.30;99.90
62998;DHT22;55949;52.590;7.330;2023-10-09T04:12:43;16.40;99.90
62998;DHT22;55949;52.590;7.330;2023-10-09T04:13:44;16.60;99.90
62998;DHT22;55949;52.590;7.330;2023-10-09T04:14:49;16.60;99.90
62998;DHT22;55949;52.590;7.330;2023-10-09T04:15:54;16.60;99.90
62998;DHT22;55949;52.590;7.330;2023-10-09T04:16:55;16.60;99.90
62998;DHT22;55949;52.590;7.330;2023-10-09T04:18:07;16.40;99.90
62998;DHT22;55949;52.590;7.330;2023-10-09T04:19:15;16.50;99.90
62998;DHT22;55949;52.590;7.330;2023-10-09T04:20:19;16.30;99.90
62998;DHT22;55949;52.590;7.330;2023-10-09T04:21:20;16.40;99.90
62998;DHT22;55949;52.590;7.330;2023-10-09T04:22:37;16.40;99.90
62998;DHT22;55949;52.590;7.330;2023-10-09T04:23:51;16.50;99.90
62998;DHT22;55949;52.590;7.330;2023-10-09T04:25:00;16.60;99.90
62998;DHT22;55949;52.590;7.330;2023-10-09T04:26:01;16.70;99.90
62998;DHT22;55949;52.590;7.330;2023-10-09T04:27:11;16.70;99.90
62998;DHT22;55949;52.590;7.330;2023-10-09T04:28:13;16.80;99.90
62998;DHT22;55949;52.590;7.330;2023-10-09T04:29:23;16.70;99.90
62998;DHT22;55949;52.590;7.330;2023-10-09T04:30:27;16.80;99.90
62998;DHT22;55949;52.590;7.330;2023-10-09T04:31:28;16.80;99.90
62998;DHT22;55949;52.590;7.330;2023-10-09T04:32:38;16.80;99.90
62998;DHT22;55949;52.590;7.330;2023-10-09T04:33:40;16.80;99.90
62998;DHT22;55949;52.590;7.330;2023-10-09T04:34:43;16.90;99.90
62998;DHT22;55949;52.590;7.330;2023-10-09T04:35:49;17.10;99.90
62998;DHT22;55949;52.590;7.330;2023-10-09T04:37:10;17.00;99.90
62998;DHT22;55949;52.590;7.330;2023-10-09T04:38:13;16.80;99.90
62998;DHT22;55949;52.590;7.330;2023-10-09T04:39:14;16.80;99.90
62998;DHT22;55949;52.590;7.330;2023-10-09T04:40:30;16.90;99.90
62998;DHT22;55949;52.590;7.330;2023-10-09T04:41:42;16.80;99.90
62998;DHT22;55949;52.590;7.330;2023-10-09T04:42:43;16.90;99.90
62998;DHT22;55949;52.590;7.330;2023-10-09T04:43:58;16.90;99.90
62998;DHT22;55949;52.590;7.330;2023-10-09T04:45:19;16.90;99.90
62998;DHT22;55949;52.590;7.330;2023-10-09T04:46:25;16.80;99.90
62998;DHT22;55949;52.590;7.330;2023-10-09T04:47:28;16.90;99.90
62998;DHT22;55949;52.590;7.330;2023-10-09T04:48:38;16.70;99.90
62998;DHT22;55949;52.590;7.330;2023-10-09T04:49:39;16.90;99.90
62998;DHT22;55949;52.590;7.330;2023-10-09T04:50:50;16.90;99.90
62998;DHT22;55949;52.590;7.330;2023-10-09T04:52:09;16.80;99.90
62998;DHT22;55949;52.590;7.330;2023-10-09T04:53:19;16.80;99.90
62998;DHT22;55949;52.590;7.330;2023-10-09T04:54:19;16.80;99.90
62998;DHT22;55949;52.590;7.330;2023-10-09T04:55:40;16.80;99.90
62998;DHT22;55949;52.590;7.330;2023-10-09T04:56:44;16.90;99.90
62998;DHT22;55949;52.590;7.330;2023-10-09T04:58:03;17.00;99.90
62998;DHT22;55949;52.590;7.330;2023-10-09T04:59:19;16.90;99.90
62998;DHT22;55949;52.590;7.330;2023-10-09T05:00:25;17.00;99.90
62998;DHT22;55949;52.590;7.330;2023-10-09T05:01:25;17.10;99.90
62998;DHT22;55949;52.590;7.330;2023-10-09T05:02:36;17.10;99.90
62998;DHT22;55949;52.590;7.330;2023-10-09T05:03:38;16.90;99.90
62998;DHT22;55949;52.590;7.330;2023-10-09T05:04:42;17.00;99.90
62998;DHT22;55949;52.590;7.330;2023-10-09T05:05:43;16.80;99.90
62998;DHT22;55949;52.590;7.330;2023-10-09T05:06:44;17.00;99.90
62998;DHT22;55949;52.590;7.330;2023-10-09T05:07:55;17.00;99.90
62998;DHT22;55949;52.590;7.330;2023-10-09T05:08:57;16.90;99.90
62998;DHT22;55949;52.590;7.330;2023-10-09T05:10:08;16.90;99.90
62998;DHT22;55949;52.590;7.330;2023-10-09T05:11:15;17.00;99.90
62998;DHT22;55949;52.590;7.330;2023-10-09T05:12:34;17.10;99.90
62998;DHT22;55949;52.590;7.330;2023-10-09T05:13:41;17.10;99.90
62998;DHT22;55949;52.590;7.330;2023-10-09T05:14:42;17.10;99.90
62998;DHT22;55949;52.590;7.330;2023-10-09T05:16:03;17.10;99.90
62998;DHT22;55949;52.590;7.330;2023-10-09T05:17:04;16.90;99.90
62998;DHT22;55949;52.590;7.330;2023-10-09T05:18:07;16.90;99.90
62998;DHT22;55949;52.590;7.330;2023-10-09T05:19:10;17.00;99.90
62998;DHT22;55949;52.590;7.330;2023-10-09T05:20:29;17.00;99.90
62998;DHT22;55949;52.590;7.330;2023-10-09T05:21:50;16.90;99.90
62998;DHT22;55949;52.590;7.330;2023-10-09T05:22:53;16.90;99.90
62998;DHT22;55949;52.590;7.330;2023-10-09T05:24:01;17.00;99.90
62998;DHT22;55949;52.590;7.330;2023-10-09T05:25:14;16.80;99.90
62998;DHT22;55949;52.590;7.330;2023-10-09T05:26:34;16.80;99.90
62998;DHT22;55949;52.590;7.330;2023-10-09T05:27:51;16.90;99.90
62998;DHT22;55949;52.590;7.330;2023-10-09T05:28:52;17.10;99.90
62998;DHT22;55949;52.590;7.330;2023-10-09T05:29:53;17.10;99.90
62998;DHT22;55949;52.590;7.330;2023-10-09T05:31:00;17.00;99.90
62998;DHT22;55949;52.590;7.330;2023-10-09T05:32:09;16.90;99.90
62998;DHT22;55949;52.590;7.330;2023-10-09T05:33:13;17.00;99.90
62998;DHT22;55949;52.590;7.330;2023-10-09T05:34:29;16.90;99.90
62998;DHT22;55949;52.590;7.330;2023-10-09T05:35:56;17.00;99.90
62998;DHT22;55949;52.590;7.330;2023-10-09T05:37:15;17.20;99.90
62998;DHT22;55949;52.590;7.330;2023-10-09T05:38:23;17.30;99.90
62998;DHT22;55949;52.590;7.330;2023-10-09T05:39:24;17.30;99.90
62998;DHT22;55949;52.590;7.330;2023-10-09T05:40:42;17.40;99.90
62998;DHT22;55949;52.590;7.330;2023-10-09T05:41:45;17.30;99.90
62998;DHT22;55949;52.590;7.330;2023-10-09T05:42:53;17.40;99.90
62998;DHT22;55949;52.590;7.330;2023-10-09T05:44:00;17.50;99.90
62998;DHT22;55949;52.590;7.330;2023-10-09T05:45:19;17.40;99.90
62998;DHT22;55949;52.590;7.330;2023-10-09T05:46:38;17.40;99.90
62998;DHT22;55949;52.590;7.330;2023-10-09T05:47:53;17.40;99.90
62998;DHT22;55949;52.590;7.330;2023-10-09T05:48:56;17.30;99.90
62998;DHT22;55949;52.590;7.330;2023-10-09T05:50:09;17.30;99.90
62998;DHT22;55949;52.590;7.330;2023-10-09T05:51:10;17.30;99.90
62998;DHT22;55949;52.590;7.330;2023-10-09T05:52:13;17.10;99.90
62998;DHT22;55949;52.590;7.330;2023-10-09T05:53:32;17.20;99.90
62998;DHT22;55949;52.590;7.330;2023-10-09T05:54:44;17.30;99.90
62998;DHT22;55949;52.590;7.330;2023-10-09T05:56:03;17.20;99.90
62998;DHT22;55949;52.590;7.330;2023-10-09T05:57:23;17.20;99.90
62998;DHT22;55949;52.590;7.330;2023-10-09T05:58:42;17.10;99.90
62998;DHT22;55949;52.590;7.330;2023-10-09T06:00:03;17.20;99.90
62998;DHT22;55949;52.590;7.330;2023-10-09T06:01:26;17.30;99.90
62998;DHT22;55949;52.590;7.330;2023-10-09T06:02:46;17.50;99.90
62998;DHT22;55949;52.590;7.330;2023-10-09T06:04:05;17.40;99.90
62998;DHT22;55949;52.590;7.330;2023-10-09T06:05:19;17.40;99.90
62998;DHT22;55949;52.590;7.330;2023-10-09T06:06:41;17.50;99.90
62998;DHT22;55949;52.590;7.330;2023-10-09T06:07:57;17.50;99.90
62998;DHT22;55949;52.590;7.330;2023-10-09T06:09:08;17.20;99.90
62998;DHT22;55949;52.590;7.330;2023-10-09T06:10:11;17.20;99.90
62998;DHT22;55949;52.590;7.330;2023-10-09T06:11:32;17.20;99.90
62998;DHT22;55949;52.590;7.330;2023-10-09T06:12:33;17.20;99.90
62998;DHT22;55949;52.590;7.330;2023-10-09T06:13:33;17.10;99.90
62998;DHT22;55949;52.590;7.330;2023-10-09T06:14:46;17.20;99.90
62998;DHT22;55949;52.590;7.330;2023-10-09T06:15:50;17.20;99.90
62998;DHT22;55949;52.590;7.330;2023-10-09T06:16:52;17.00;99.90
62998;DHT22;55949;52.590;7.330;2023-10-09T06:18:16;17.20;99.90
62998;DHT22;55949;52.590;7.330;2023-10-09T06:19:35;17.10;99.90
62998;DHT22;55949;52.590;7.330;2023-10-09T06:20:43;17.20;99.90
62998;DHT22;55949;52.590;7.330;2023-10-09T06:22:02;17.20;99.90
62998;DHT22;55949;52.590;7.330;2023-10-09T06:23:12;17.30;99.90
62998;DHT22;55949;52.590;7.330;2023-10-09T06:24:16;17.40;99.90
62998;DHT22;55949;52.590;7.330;2023-10-09T06:25:16;17.50;99.90
62998;DHT22;55949;52.590;7.330;2023-10-09T06:26:18;17.50;99.90
62998;DHT22;55949;52.590;7.330;2023-10-09T06:27:25;17.50;99.90
62998;DHT22;55949;52.590;7.330;2023-10-09T06:28:32;17.60;99.90
62998;DHT22;55949;52.590;7.330;2023-10-09T06:29:35;17.60;99.90
62998;DHT22;55949;52.590;7.330;2023-10-09T06:30:36;17.70;99.90
62998;DHT22;55949;52.590;7.330;2023-10-09T06:31:44;17.80;99.90
62998;DHT22;55949;52.590;7.330;2023-10-09T06:33:20;17.60;99.90
62998;DHT22;55949;52.590;7.330;2023-10-09T06:34:29;17.70;99.90
62998;DHT22;55949;52.590;7.330;2023-10-09T06:35:36;17.80;99.90
62998;DHT22;55949;52.590;7.330;2023-10-09T06:36:37;17.70;99.90
62998;DHT22;55949;52.590;7.330;2023-10-09T06:37:53;17.80;99.90
62998;DHT22;55949;52.590;7.330;2023-10-09T06:39:03;18.00;99.90
62998;DHT22;55949;52.590;7.330;2023-10-09T06:40:23;18.20;99.90
62998;DHT22;55949;52.590;7.330;2023-10-09T06:41:42;18.20;99.90
62998;DHT22;55949;52.590;7.330;2023-10-09T06:42:45;18.30;99.90
62998;DHT22;55949;52.590;7.330;2023-10-09T06:43:51;18.30;99.90
62998;DHT22;55949;52.590;7.330;2023-10-09T06:44:53;18.30;99.90
62998;DHT22;55949;52.590;7.330;2023-10-09T06:45:56;18.20;99.90
62998;DHT22;55949;52.590;7.330;2023-10-09T06:47:26;18.00;99.90
62998;DHT22;55949;52.590;7.330;2023-10-09T06:48:27;18.10;99.90
62998;DHT22;55949;52.590;7.330;2023-10-09T06:49:34;18.00;99.90
62998;DHT22;55949;52.590;7.330;2023-10-09T06:50:36;18.00;99.90
62998;DHT22;55949;52.590;7.330;2023-10-09T06:51:56;17.90;99.90
62998;DHT22;55949;52.590;7.330;2023-10-09T06:53:13;17.90;99.90
62998;DHT22;55949;52.590;7.330;2023-10-09T06:54:14;17.90;99.90
62998;DHT22;55949;52.590;7.330;2023-10-09T06:55:16;17.70;99.90
62998;DHT22;55949;52.590;7.330;2023-10-09T06:56:20;17.50;99.90
62998;DHT22;55949;52.590;7.330;2023-10-09T06:57:30;17.50;99.90
62998;DHT22;55949;52.590;7.330;2023-10-09T06:58:50;17.40;99.90
62998;DHT22;55949;52.590;7.330;2023-10-09T06:59:55;17.30;99.90
62998;DHT22;55949;52.590;7.330;2023-10-09T07:01:31;17.40;99.90
62998;DHT22;55949;52.590;7.330;2023-10-09T07:02:37;17.30;99.90